Time;durP1;ratioP1;P1;durP2;ratioP2;P2;SDS_P1;SDS_P2;PMS_P1;PMS_P2;Temp;Humidity;BMP_temperature;BMP_pressure;BME280_temperature;BME280_humidity;BME280_pressure;Samples;Min_cycle;Max_cycle;Signal;HPM_P1;HPM_P2
2023/09/16 00:02:07;;;;;;;3.35;2.90;;;;;;;;;;4995222;28;20049;-70
2023/09/16 00:04:32;;;;;;;3.17;2.88;;;;;;;;;;4989610;28;20033;-70
2023/09/16 00:06:59;;;;;;;3.30;3.00;;;;;;;;;;4993363;28;20038;-70
2023/09/16 00:09:24;;;;;;;5.47;3.20;;;;;;;;;;4996879;28;20030;-70
2023/09/16 00:11:50;;;;;;;3.40;3.10;;;;;;;;;;4992486;28;20049;-70
2023/09/16 00:14:18;;;;;;;3.20;3.00;;;;;;;;;;4995786;28;20132;-70
2023/09/16 00:16:45;;;;;;;4.88;3.25;;;;;;;;;;4994716;28;20038;-70
2023/09/16 00:19:12;;;;;;;3.40;3.10;;;;;;;;;;4993719;28;20047;-70
2023/09/16 00:21:39;;;;;;;7.32;3.22;;;;;;;;;;4994041;28;20038;-69
2023/09/16 00:24:05;;;;;;;3.00;2.80;;;;;;;;;;4971941;28;20058;-71
2023/09/16 00:26:34;;;;;;;3.15;2.95;;;;;;;;;;4990086;28;20048;-70
2023/09/16 00:29:00;;;;;;;4.32;3.10;;;;;;;;;;4994957;28;20037;-70
2023/09/16 00:31:25;;;;;;;6.05;3.05;;;;;;;;;;4984993;28;20039;-70
2023/09/16 00:33:51;;;;;;;4.45;3.30;;;;;;;;;;4994462;28;20053;-69
2023/09/16 00:36:16;;;;;;;3.65;3.08;;;;;;;;;;4994945;28;20500;-70
2023/09/16 00:38:42;;;;;;;4.05;3.25;;;;;;;;;;4992568;28;20029;-70
2023/09/16 00:41:08;;;;;;;4.93;3.20;;;;;;;;;;4995848;28;20039;-71
2023/09/16 00:43:34;;;;;;;3.65;3.40;;;;;;;;;;4996451;28;20034;-71
2023/09/16 00:45:59;;;;;;;4.55;2.88;;;;;;;;;;4991957;28;20038;-70
2023/09/16 00:48:25;;;;;;;4.22;3.22;;;;;;;;;;4995217;28;20089;-70
2023/09/16 00:50:51;;;;;;;3.50;3.20;;;;;;;;;;4996174;28;20066;-70
2023/09/16 00:53:17;;;;;;;3.63;3.33;;;;;;;;;;4988606;28;20029;-70
2023/09/16 00:55:45;;;;;;;3.45;3.15;;;;;;;;;;4995516;28;20043;-70
2023/09/16 00:58:11;;;;;;;3.25;2.95;;;;;;;;;;4995091;28;20031;-70
2023/09/16 01:00:37;;;;;;;3.00;2.80;;;;;;;;;;4989875;28;20041;-70
2023/09/16 01:03:04;;;;;;;3.58;3.28;;;;;;;;;;4995710;28;20476;-71
2023/09/16 01:05:30;;;;;;;3.17;2.90;;;;;;;;;;4977949;28;20045;-71
2023/09/16 01:07:57;;;;;;;3.67;3.38;;;;;;;;;;4995197;28;20022;-71
2023/09/16 01:10:23;;;;;;;4.35;3.42;;;;;;;;;;4993289;28;20062;-69
2023/09/16 01:12:52;;;;;;;4.82;3.28;;;;;;;;;;4976985;28;20076;-69
2023/09/16 01:15:20;;;;;;;3.28;3.08;;;;;;;;;;4993819;28;20396;-69
2023/09/16 01:18:06;;;;;;;5.10;3.53;;;;;;;;;;4995111;28;20030;-69
2023/09/16 01:20:32;;;;;;;4.32;3.45;;;;;;;;;;4991636;28;20043;-69
2023/09/16 01:22:58;;;;;;;5.70;3.40;;;;;;;;;;4992565;28;20024;-69
2023/09/16 01:25:28;;;;;;;4.60;3.30;;;;;;;;;;4988317;28;20455;-69
2023/09/16 01:27:54;;;;;;;3.70;3.40;;;;;;;;;;4992692;28;20110;-69
2023/09/16 01:30:19;;;;;;;3.95;3.55;;;;;;;;;;4993076;28;20050;-69
2023/09/16 01:32:54;;;;;;;3.92;3.17;;;;;;;;;;4986967;28;20023;-69
2023/09/16 01:35:21;;;;;;;6.35;3.00;;;;;;;;;;4992870;28;20035;-69
2023/09/16 01:37:49;;;;;;;3.50;3.30;;;;;;;;;;4985753;28;20035;-69
2023/09/16 01:40:15;;;;;;;3.20;2.90;;;;;;;;;;4965649;28;20035;-69
2023/09/16 01:42:42;;;;;;;3.22;3.00;;;;;;;;;;4995600;28;20088;-68
2023/09/16 01:45:10;;;;;;;3.33;3.03;;;;;;;;;;4994832;28;20018;-68
2023/09/16 01:47:36;;;;;;;4.63;3.13;;;;;;;;;;4987996;28;20030;-68
2023/09/16 01:50:02;;;;;;;5.93;3.53;;;;;;;;;;4991400;28;20105;-69
2023/09/16 01:52:27;;;;;;;3.30;3.00;;;;;;;;;;4981488;28;20023;-69
2023/09/16 01:54:53;;;;;;;3.17;2.97;;;;;;;;;;4983985;28;20030;-68
2023/09/16 01:57:18;;;;;;;3.65;3.00;;;;;;;;;;4993772;28;20022;-69
2023/09/16 01:59:44;;;;;;;4.30;3.10;;;;;;;;;;4984952;28;20385;-69
2023/09/16 02:02:11;;;;;;;3.63;3.05;;;;;;;;;;4985546;28;20026;-69
2023/09/16 02:04:38;;;;;;;3.40;3.10;;;;;;;;;;4988387;28;20030;-69
2023/09/16 02:07:04;;;;;;;3.10;2.90;;;;;;;;;;4988068;28;20049;-70
2023/09/16 02:09:29;;;;;;;3.20;3.00;;;;;;;;;;4991065;28;20034;-70
2023/09/16 02:11:55;;;;;;;2.95;2.70;;;;;;;;;;5006730;28;20046;-70
2023/09/16 02:14:20;;;;;;;5.05;3.00;;;;;;;;;;4992626;28;20027;-70
2023/09/16 02:16:46;;;;;;;5.70;3.28;;;;;;;;;;4992301;28;20041;-70
2023/09/16 02:19:11;;;;;;;3.80;3.25;;;;;;;;;;4988147;28;20046;-70
2023/09/16 02:21:37;;;;;;;4.32;3.40;;;;;;;;;;4994219;28;20038;-70
2023/09/16 02:24:03;;;;;;;3.40;3.10;;;;;;;;;;4993778;28;20086;-70
2023/09/16 02:26:29;;;;;;;5.35;2.90;;;;;;;;;;4996051;28;20041;-70
2023/09/16 02:28:54;;;;;;;7.78;3.15;;;;;;;;;;4991880;28;20114;-70
2023/09/16 02:31:19;;;;;;;3.15;2.90;;;;;;;;;;4989323;28;20500;-70
2023/09/16 02:33:45;;;;;;;3.30;3.00;;;;;;;;;;4986659;28;20050;-70
2023/09/16 02:36:10;;;;;;;4.88;2.90;;;;;;;;;;5026010;28;20557;-69
2023/09/16 02:38:35;;;;;;;5.30;2.95;;;;;;;;;;4996864;28;20026;-69
2023/09/16 02:41:07;;;;;;;3.13;2.83;;;;;;;;;;4994288;28;20396;-69
2023/09/16 02:43:32;;;;;;;3.17;2.75;;;;;;;;;;4996333;28;20030;-69
2023/09/16 02:45:58;;;;;;;5.05;3.10;;;;;;;;;;4997066;28;20154;-69
2023/09/16 02:48:23;;;;;;;2.95;2.75;;;;;;;;;;4986403;28;20460;-69
2023/09/16 02:50:49;;;;;;;3.42;3.13;;;;;;;;;;4998187;28;20038;-69
2023/09/16 02:53:16;;;;;;;5.10;2.92;;;;;;;;;;4986430;28;20106;-71
2023/09/16 02:55:42;;;;;;;5.72;3.30;;;;;;;;;;4995690;28;20049;-71
2023/09/16 02:58:07;;;;;;;3.35;2.85;;;;;;;;;;4995571;28;20030;-71
2023/09/16 03:00:33;;;;;;;3.42;3.00;;;;;;;;;;4995425;28;20049;-70
2023/09/16 03:02:59;;;;;;;4.03;2.88;;;;;;;;;;4989359;28;20027;-71
2023/09/16 03:05:24;;;;;;;2.80;2.60;;;;;;;;;;4997771;28;20057;-71
2023/09/16 03:07:50;;;;;;;4.38;2.83;;;;;;;;;;4991972;28;20026;-71
2023/09/16 03:10:16;;;;;;;5.38;3.33;;;;;;;;;;4997915;28;20620;-71
2023/09/16 03:12:41;;;;;;;7.55;2.85;;;;;;;;;;4995134;28;20026;-70
2023/09/16 03:15:07;;;;;;;6.15;2.80;;;;;;;;;;4995673;28;20041;-70
2023/09/16 03:17:32;;;;;;;2.88;2.55;;;;;;;;;;4995849;28;20033;-70
2023/09/16 03:19:58;;;;;;;5.68;2.95;;;;;;;;;;4989116;28;20023;-70
2023/09/16 03:22:23;;;;;;;2.90;2.70;;;;;;;;;;4993750;28;20034;-70
2023/09/16 03:24:49;;;;;;;2.78;2.55;;;;;;;;;;4997002;28;20061;-70
2023/09/16 03:27:14;;;;;;;3.13;2.88;;;;;;;;;;4996210;28;20046;-70
2023/09/16 03:29:40;;;;;;;3.13;2.83;;;;;;;;;;4992600;28;20030;-71
2023/09/16 03:32:06;;;;;;;3.83;3.03;;;;;;;;;;4990995;28;20038;-71
2023/09/16 03:34:31;;;;;;;3.15;2.78;;;;;;;;;;4996979;28;20040;-71
2023/09/16 03:36:56;;;;;;;2.88;2.67;;;;;;;;;;4993499;28;20116;-70
2023/09/16 03:39:22;;;;;;;2.90;2.70;;;;;;;;;;4997146;28;20105;-69
2023/09/16 03:41:48;;;;;;;3.25;2.97;;;;;;;;;;4993810;28;20034;-70
2023/09/16 03:44:14;;;;;;;3.00;2.80;;;;;;;;;;4977340;28;20034;-71
2023/09/16 03:46:39;;;;;;;5.53;3.03;;;;;;;;;;4993016;28;20098;-71
2023/09/16 03:49:05;;;;;;;2.70;2.55;;;;;;;;;;4997275;28;20543;-70
2023/09/16 03:51:32;;;;;;;5.97;2.90;;;;;;;;;;4994792;28;20110;-71
2023/09/16 03:53:59;;;;;;;2.90;2.70;;;;;;;;;;4989542;28;20030;-71
2023/09/16 03:56:24;;;;;;;3.05;2.80;;;;;;;;;;4995797;28;20068;-70
2023/09/16 03:58:50;;;;;;;3.20;2.90;;;;;;;;;;4994819;28;20034;-70
2023/09/16 04:01:15;;;;;;;3.13;2.85;;;;;;;;;;4992896;28;20038;-69
2023/09/16 04:03:41;;;;;;;4.22;3.00;;;;;;;;;;4990929;28;20400;-69
2023/09/16 04:06:06;;;;;;;4.03;2.85;;;;;;;;;;4992070;28;20547;-70
2023/09/16 04:08:32;;;;;;;3.15;2.85;;;;;;;;;;4988900;28;20042;-70
2023/09/16 04:10:58;;;;;;;3.33;3.03;;;;;;;;;;4994998;28;20610;-70
2023/09/16 04:13:23;;;;;;;4.20;2.90;;;;;;;;;;4995587;28;20065;-70
2023/09/16 04:15:50;;;;;;;3.10;2.90;;;;;;;;;;4992357;28;20109;-70
2023/09/16 04:18:15;;;;;;;4.88;3.00;;;;;;;;;;4991914;28;20050;-71
2023/09/16 04:20:41;;;;;;;2.80;2.60;;;;;;;;;;4982720;28;20412;-72
2023/09/16 04:23:08;;;;;;;3.10;2.85;;;;;;;;;;4988393;28;20022;-71
2023/09/16 04:25:34;;;;;;;3.00;2.80;;;;;;;;;;4993939;28;20074;-71
2023/09/16 04:28:00;;;;;;;5.20;2.78;;;;;;;;;;4997839;28;20021;-71
2023/09/16 04:30:26;;;;;;;3.63;2.92;;;;;;;;;;4985125;28;20526;-70
2023/09/16 04:32:53;;;;;;;5.82;2.80;;;;;;;;;;5018938;28;20041;-70
2023/09/16 04:35:19;;;;;;;3.05;2.75;;;;;;;;;;4991944;28;20152;-70
2023/09/16 04:37:44;;;;;;;3.30;3.00;;;;;;;;;;4995035;28;20031;-71
2023/09/16 04:40:11;;;;;;;5.00;2.95;;;;;;;;;;4988850;28;20112;-71
2023/09/16 04:42:37;;;;;;;3.10;2.83;;;;;;;;;;4976928;28;20575;-71
2023/09/16 04:45:04;;;;;;;3.30;3.00;;;;;;;;;;4989390;28;20030;-71
2023/09/16 04:47:29;;;;;;;3.30;3.00;;;;;;;;;;4992306;28;20048;-71
2023/09/16 04:49:55;;;;;;;3.17;2.85;;;;;;;;;;4990671;28;20112;-70
2023/09/16 04:52:25;;;;;;;3.70;2.58;;;;;;;;;;4993225;28;20476;-70
2023/09/16 04:54:53;;;;;;;7.93;3.22;;;;;;;;;;4991485;28;20041;-68
2023/09/16 04:57:18;;;;;;;6.90;3.22;;;;;;;;;;4991053;28;20052;-71
2023/09/16 04:59:45;;;;;;;3.25;2.80;;;;;;;;;;4991020;28;20037;-70
2023/09/16 05:02:11;;;;;;;5.20;3.22;;;;;;;;;;4991439;28;20034;-69
2023/09/16 05:04:36;;;;;;;4.60;2.65;;;;;;;;;;4994516;28;20030;-69
2023/09/16 05:07:04;;;;;;;7.07;2.83;;;;;;;;;;4993203;28;20403;-69
2023/09/16 05:09:30;;;;;;;6.20;3.05;;;;;;;;;;4994864;28;20022;-69
2023/09/16 05:11:56;;;;;;;4.40;2.80;;;;;;;;;;4988942;28;20045;-69
2023/09/16 05:14:21;;;;;;;3.83;2.78;;;;;;;;;;4987908;28;20026;-70
2023/09/16 05:16:46;;;;;;;3.33;3.03;;;;;;;;;;4988264;28;20034;-70
2023/09/16 05:19:12;;;;;;;2.70;2.50;;;;;;;;;;4992917;28;20129;-71
2023/09/16 05:21:38;;;;;;;5.35;2.58;;;;;;;;;;4995590;28;20038;-69
2023/09/16 05:24:04;;;;;;;3.25;2.85;;;;;;;;;;4987570;28;20117;-69
2023/09/16 05:26:30;;;;;;;5.43;2.70;;;;;;;;;;4996842;28;20181;-68
2023/09/16 05:28:56;;;;;;;3.47;2.90;;;;;;;;;;4993378;28;20065;-69
2023/09/16 05:31:23;;;;;;;3.53;3.13;;;;;;;;;;4992141;28;20046;-70
2023/09/16 05:33:51;;;;;;;4.07;2.80;;;;;;;;;;4993866;28;20022;-70
2023/09/16 05:36:17;;;;;;;3.28;2.97;;;;;;;;;;4994282;28;20559;-70
2023/09/16 05:38:43;;;;;;;3.38;2.53;;;;;;;;;;4992905;28;20022;-70
2023/09/16 05:41:08;;;;;;;3.00;2.80;;;;;;;;;;4988097;28;20101;-70
2023/09/16 05:43:34;;;;;;;3.42;3.13;;;;;;;;;;4990205;28;20038;-70
2023/09/16 05:46:01;;;;;;;4.80;2.63;;;;;;;;;;4984704;28;20125;-71
2023/09/16 05:48:27;;;;;;;4.13;3.17;;;;;;;;;;4988479;28;20716;-73
2023/09/16 05:50:59;;;;;;;4.40;3.47;;;;;;;;;;4980831;28;20070;-73
2023/09/16 05:53:26;;;;;;;3.88;3.13;;;;;;;;;;4993485;28;20031;-73
2023/09/16 05:55:53;;;;;;;5.07;3.15;;;;;;;;;;4990587;28;20043;-73
2023/09/16 05:58:18;;;;;;;5.68;3.03;;;;;;;;;;4993884;28;20030;-73
2023/09/16 06:00:48;;;;;;;4.20;3.03;;;;;;;;;;4998980;28;20034;-73
2023/09/16 06:03:14;;;;;;;3.40;3.10;;;;;;;;;;4997713;28;20081;-71
2023/09/16 06:05:39;;;;;;;4.93;3.20;;;;;;;;;;4994547;28;20046;-72
2023/09/16 06:08:05;;;;;;;3.25;3.03;;;;;;;;;;4981439;28;20070;-73
2023/09/16 06:10:30;;;;;;;8.10;3.38;;;;;;;;;;4981181;28;20050;-71
2023/09/16 06:12:56;;;;;;;6.85;3.20;;;;;;;;;;4997744;28;20086;-71
2023/09/16 06:15:21;;;;;;;3.72;3.10;;;;;;;;;;4998728;28;20058;-71
2023/09/16 06:17:47;;;;;;;4.07;3.28;;;;;;;;;;4999290;28;20034;-71
2023/09/16 06:20:12;;;;;;;3.35;3.05;;;;;;;;;;4993469;28;20026;-70
2023/09/16 06:22:37;;;;;;;3.40;3.10;;;;;;;;;;4991432;28;20380;-71
2023/09/16 06:25:03;;;;;;;5.05;3.28;;;;;;;;;;4984261;28;20041;-71
2023/09/16 06:27:29;;;;;;;3.55;3.05;;;;;;;;;;4996370;28;20037;-73
2023/09/16 06:29:55;;;;;;;7.03;3.38;;;;;;;;;;4994512;28;20117;-71
2023/09/16 06:32:21;;;;;;;4.78;3.17;;;;;;;;;;4986264;28;20096;-73
2023/09/16 06:34:46;;;;;;;4.00;3.60;;;;;;;;;;4973603;28;20031;-72
2023/09/16 06:37:12;;;;;;;4.50;3.28;;;;;;;;;;4984639;28;20046;-71
2023/09/16 06:39:38;;;;;;;7.07;3.97;;;;;;;;;;4991212;28;20081;-71
2023/09/16 06:42:06;;;;;;;14.43;3.60;;;;;;;;;;4994086;28;20050;-71
2023/09/16 06:44:31;;;;;;;10.13;3.38;;;;;;;;;;4990660;28;20082;-70
2023/09/16 06:46:57;;;;;;;5.00;3.80;;;;;;;;;;4983285;28;20465;-71
2023/09/16 06:49:22;;;;;;;7.97;4.03;;;;;;;;;;4983464;28;20062;-71
2023/09/16 06:51:48;;;;;;;8.88;3.80;;;;;;;;;;4991984;28;20070;-71
2023/09/16 06:54:14;;;;;;;7.68;4.32;;;;;;;;;;4999147;28;20046;-68
2023/09/16 06:56:39;;;;;;;14.00;4.05;;;;;;;;;;4992755;28;20034;-70
2023/09/16 06:59:04;;;;;;;11.48;3.50;;;;;;;;;;4992836;28;20034;-69
2023/09/16 07:01:30;;;;;;;6.00;3.70;;;;;;;;;;4991377;28;20065;-72
2023/09/16 07:03:56;;;;;;;4.32;3.47;;;;;;;;;;4989043;28;20072;-71
2023/09/16 07:06:21;;;;;;;5.65;3.60;;;;;;;;;;4993325;28;20764;-71
2023/09/16 07:08:47;;;;;;;4.90;3.50;;;;;;;;;;4985932;28;20034;-73
2023/09/16 07:11:14;;;;;;;5.72;3.88;;;;;;;;;;4987456;28;20037;-71
2023/09/16 07:13:40;;;;;;;6.80;4.18;;;;;;;;;;4990588;28;20692;-72
2023/09/16 07:16:06;;;;;;;5.78;3.78;;;;;;;;;;4990000;28;20114;-72
2023/09/16 07:18:31;;;;;;;4.20;3.60;;;;;;;;;;4984412;28;20141;-69
2023/09/16 07:20:57;;;;;;;4.32;3.78;;;;;;;;;;4987007;28;20038;-70
2023/09/16 07:23:22;;;;;;;3.95;3.65;;;;;;;;;;4980993;28;20026;-75
2023/09/16 07:25:58;;;;;;;6.47;3.75;;;;;;;;;;4986382;28;20030;-71
2023/09/16 07:28:25;;;;;;;6.65;4.28;;;;;;;;;;4979230;28;20393;-72
2023/09/16 07:30:51;;;;;;;4.40;3.95;;;;;;;;;;4981252;28;20041;-72
2023/09/16 07:33:16;;;;;;;7.28;3.72;;;;;;;;;;4993171;28;20089;-73
2023/09/16 07:35:42;;;;;;;9.63;4.65;;;;;;;;;;4987960;28;20044;-72
2023/09/16 07:38:08;;;;;;;6.65;4.15;;;;;;;;;;4984613;28;20077;-71
2023/09/16 07:40:35;;;;;;;6.82;4.45;;;;;;;;;;4985465;28;20512;-69
2023/09/16 07:43:01;;;;;;;5.05;4.05;;;;;;;;;;4993137;28;20037;-68
2023/09/16 07:45:27;;;;;;;4.53;3.78;;;;;;;;;;4986985;28;20043;-68
2023/09/16 07:47:53;;;;;;;5.65;4.00;;;;;;;;;;4990419;28;20077;-68
2023/09/16 07:50:18;;;;;;;4.90;3.92;;;;;;;;;;4993677;28;20030;-68
2023/09/16 07:52:44;;;;;;;4.28;3.95;;;;;;;;;;4989174;28;20022;-69
2023/09/16 07:55:09;;;;;;;5.03;4.15;;;;;;;;;;4988178;28;21082;-68
2023/09/16 07:57:34;;;;;;;4.85;4.20;;;;;;;;;;5015303;28;20046;-69
2023/09/16 08:00:00;;;;;;;4.38;3.97;;;;;;;;;;4985755;28;20035;-69
2023/09/16 08:02:25;;;;;;;4.22;3.83;;;;;;;;;;4985306;28;20113;-70
2023/09/16 08:04:51;;;;;;;9.45;4.00;;;;;;;;;;5000215;28;20030;-70
2023/09/16 08:07:16;;;;;;;4.47;3.65;;;;;;;;;;4979461;28;20026;-69
2023/09/16 08:09:42;;;;;;;4.15;3.75;;;;;;;;;;4987302;28;20030;-68
2023/09/16 08:12:07;;;;;;;4.18;3.78;;;;;;;;;;4981926;28;20102;-69
2023/09/16 08:14:33;;;;;;;4.25;3.35;;;;;;;;;;4986579;28;20400;-69
2023/09/16 08:17:02;;;;;;;8.95;3.97;;;;;;;;;;4981545;28;20045;-73
2023/09/16 08:19:28;;;;;;;10.05;3.67;;;;;;;;;;4981839;28;20104;-67
2023/09/16 08:21:54;;;;;;;3.95;3.65;;;;;;;;;;4985521;28;20122;-70
2023/09/16 08:24:19;;;;;;;3.97;2.85;;;;;;;;;;4986012;28;20030;-68
2023/09/16 08:26:44;;;;;;;4.47;3.63;;;;;;;;;;4983871;28;20045;-69
2023/09/16 08:29:10;;;;;;;13.32;3.88;;;;;;;;;;4994591;28;20041;-69
2023/09/16 08:31:35;;;;;;;4.13;3.40;;;;;;;;;;4989827;28;20392;-69
2023/09/16 08:34:01;;;;;;;6.03;4.00;;;;;;;;;;4987429;28;20035;-69
2023/09/16 08:36:27;;;;;;;4.72;3.70;;;;;;;;;;4992829;28;20049;-69
2023/09/16 08:38:52;;;;;;;5.25;3.40;;;;;;;;;;4991816;28;20113;-69
2023/09/16 08:41:25;;;;;;;3.67;3.20;;;;;;;;;;4996272;28;20040;-69
2023/09/16 08:43:53;;;;;;;8.52;3.55;;;;;;;;;;4984211;28;20448;-69
2023/09/16 08:46:21;;;;;;;5.25;3.35;;;;;;;;;;4994968;28;20440;-69
2023/09/16 08:48:50;;;;;;;6.18;3.67;;;;;;;;;;4987010;28;20061;-69
2023/09/16 08:51:19;;;;;;;9.20;3.70;;;;;;;;;;4994911;28;20055;-69
2023/09/16 08:53:47;;;;;;;6.40;3.58;;;;;;;;;;5015441;28;20381;-69
2023/09/16 08:56:12;;;;;;;6.78;3.78;;;;;;;;;;4992964;28;20125;-69
2023/09/16 08:58:39;;;;;;;4.47;3.63;;;;;;;;;;4996773;28;20223;-69
2023/09/16 09:01:05;;;;;;;3.78;3.47;;;;;;;;;;4990450;28;20038;-69
2023/09/16 09:03:32;;;;;;;6.93;3.70;;;;;;;;;;4991713;28;20383;-70
2023/09/16 09:05:58;;;;;;;3.60;3.30;;;;;;;;;;4995763;28;20042;-69
2023/09/16 09:08:24;;;;;;;4.85;3.40;;;;;;;;;;4991722;28;20085;-69
2023/09/16 09:10:50;;;;;;;4.22;3.30;;;;;;;;;;4989181;28;20412;-69
2023/09/16 09:13:16;;;;;;;4.22;3.17;;;;;;;;;;4986069;28;20049;-69
2023/09/16 09:15:43;;;;;;;3.53;3.22;;;;;;;;;;4994039;28;20121;-69
2023/09/16 09:18:12;;;;;;;3.70;3.40;;;;;;;;;;4993532;28;20038;-69
2023/09/16 09:20:38;;;;;;;3.55;3.25;;;;;;;;;;4990649;28;20049;-68
2023/09/16 09:23:03;;;;;;;4.20;3.13;;;;;;;;;;4986783;28;20026;-68
2023/09/16 09:25:32;;;;;;;4.32;3.65;;;;;;;;;;4985076;28;20054;-68
2023/09/16 09:27:58;;;;;;;4.03;3.58;;;;;;;;;;4991466;28;20038;-68
2023/09/16 09:30:27;;;;;;;3.60;3.30;;;;;;;;;;4985370;28;20563;-68
2023/09/16 09:32:56;;;;;;;4.40;3.72;;;;;;;;;;5000516;28;20022;-68
2023/09/16 09:35:23;;;;;;;4.03;3.30;;;;;;;;;;4998385;28;20463;-68
2023/09/16 09:37:49;;;;;;;4.13;3.58;;;;;;;;;;4997120;28;20061;-68
2023/09/16 09:40:15;;;;;;;3.20;3.00;;;;;;;;;;4999545;28;20523;-68
2023/09/16 09:42:40;;;;;;;3.67;3.33;;;;;;;;;;4997592;28;20069;-68
2023/09/16 09:45:07;;;;;;;4.07;3.30;;;;;;;;;;4996448;28;20061;-68
2023/09/16 09:47:34;;;;;;;5.03;3.17;;;;;;;;;;4993489;28;20035;-68
2023/09/16 09:50:00;;;;;;;4.88;3.50;;;;;;;;;;4995490;28;20029;-68
2023/09/16 09:52:26;;;;;;;3.30;3.00;;;;;;;;;;5003491;28;20062;-68
2023/09/16 09:54:52;;;;;;;3.85;3.55;;;;;;;;;;4984959;28;20436;-67
2023/09/16 09:57:18;;;;;;;3.13;2.90;;;;;;;;;;4998477;28;20050;-68
2023/09/16 09:59:43;;;;;;;3.70;3.20;;;;;;;;;;4997829;28;20037;-68
2023/09/16 10:02:09;;;;;;;4.30;3.45;;;;;;;;;;4997284;28;20044;-68
2023/09/16 10:04:35;;;;;;;3.50;3.20;;;;;;;;;;4998197;28;20031;-68
2023/09/16 10:07:00;;;;;;;3.95;3.65;;;;;;;;;;4997429;28;20062;-68
2023/09/16 10:09:26;;;;;;;3.08;2.88;;;;;;;;;;4998119;28;20076;-68
2023/09/16 10:11:51;;;;;;;4.30;3.40;;;;;;;;;;4994029;28;20125;-68
2023/09/16 10:14:19;;;;;;;3.22;2.92;;;;;;;;;;4992822;28;20018;-68
2023/09/16 10:16:46;;;;;;;3.72;3.30;;;;;;;;;;4987525;28;20034;-68
2023/09/16 10:19:12;;;;;;;3.05;2.85;;;;;;;;;;4994639;28;20527;-68
2023/09/16 10:21:37;;;;;;;3.28;2.97;;;;;;;;;;4996270;28;20361;-68
2023/09/16 10:24:03;;;;;;;3.63;3.33;;;;;;;;;;4998140;28;20094;-68
2023/09/16 10:26:28;;;;;;;3.40;3.15;;;;;;;;;;4997099;28;20045;-68
2023/09/16 10:28:56;;;;;;;3.50;3.20;;;;;;;;;;4995073;28;20058;-68
2023/09/16 10:31:22;;;;;;;3.97;3.15;;;;;;;;;;4998588;28;20050;-68
2023/09/16 10:33:48;;;;;;;3.50;3.20;;;;;;;;;;4998970;28;20034;-68
2023/09/16 10:36:14;;;;;;;2.97;2.70;;;;;;;;;;4993959;28;20492;-68
2023/09/16 10:38:41;;;;;;;3.45;3.05;;;;;;;;;;4990422;28;20546;-68
2023/09/16 10:41:07;;;;;;;3.22;2.90;;;;;;;;;;4994877;28;20034;-68
2023/09/16 10:43:34;;;;;;;3.20;3.00;;;;;;;;;;4999215;28;20034;-68
2023/09/16 10:46:00;;;;;;;3.58;3.28;;;;;;;;;;4994299;28;20408;-68
2023/09/16 10:48:26;;;;;;;3.80;3.22;;;;;;;;;;4996223;28;20033;-68
2023/09/16 10:50:59;;;;;;;3.08;2.88;;;;;;;;;;4989287;28;20109;-68
2023/09/16 10:53:29;;;;;;;3.10;2.90;;;;;;;;;;4998042;28;20029;-68
2023/09/16 10:56:23;;;;;;;2.88;2.67;;;;;;;;;;4994304;28;20085;-68
2023/09/16 10:58:55;;;;;;;2.92;2.72;;;;;;;;;;4989911;28;20026;-68
2023/09/16 11:01:36;;;;;;;3.10;2.80;;;;;;;;;;4996373;28;20061;-68
2023/09/16 11:04:11;;;;;;;3.10;2.80;;;;;;;;;;4991275;28;20090;-68
2023/09/16 11:06:37;;;;;;;3.17;2.97;;;;;;;;;;4987035;28;20043;-68
2023/09/16 11:09:03;;;;;;;4.93;3.17;;;;;;;;;;4985335;28;20097;-68
2023/09/16 11:11:29;;;;;;;3.17;2.97;;;;;;;;;;4995631;28;20129;-68
2023/09/16 11:13:54;;;;;;;4.47;2.70;;;;;;;;;;4997988;28;20049;-68
2023/09/16 11:16:21;;;;;;;3.00;2.80;;;;;;;;;;4994966;28;20031;-68
2023/09/16 11:18:51;;;;;;;3.10;2.90;;;;;;;;;;4997729;28;20050;-68
2023/09/16 11:21:17;;;;;;;3.10;2.90;;;;;;;;;;4995710;28;20034;-68
2023/09/16 11:23:47;;;;;;;3.08;2.85;;;;;;;;;;4998128;28;20035;-68
2023/09/16 11:26:22;;;;;;;2.70;2.50;;;;;;;;;;4993030;28;20034;-68
2023/09/16 11:28:51;;;;;;;4.53;3.00;;;;;;;;;;4988952;28;20026;-68
2023/09/16 11:31:16;;;;;;;2.75;2.55;;;;;;;;;;4995064;28;20088;-68
2023/09/16 11:33:42;;;;;;;2.85;2.50;;;;;;;;;;4995470;28;20162;-68
2023/09/16 11:36:18;;;;;;;3.13;2.75;;;;;;;;;;4989007;28;20042;-68
2023/09/16 11:38:58;;;;;;;2.70;2.50;;;;;;;;;;4985427;28;20041;-68
2023/09/16 11:41:24;;;;;;;4.15;2.78;;;;;;;;;;4993672;28;20039;-68
2023/09/16 11:43:51;;;;;;;2.70;2.50;;;;;;;;;;4994906;28;20054;-68
2023/09/16 11:46:17;;;;;;;2.83;2.63;;;;;;;;;;4997160;28;20035;-68
2023/09/16 11:48:51;;;;;;;3.83;2.60;;;;;;;;;;4993771;28;20030;-68
2023/09/16 11:51:17;;;;;;;2.63;2.42;;;;;;;;;;4983484;28;20108;-71
2023/09/16 11:53:43;;;;;;;5.15;2.60;;;;;;;;;;4990886;28;20022;-68
2023/09/16 11:56:09;;;;;;;2.72;2.53;;;;;;;;;;4995113;28;20045;-68
2023/09/16 11:58:34;;;;;;;3.83;2.80;;;;;;;;;;4991592;28;20026;-67
2023/09/16 12:01:01;;;;;;;5.35;2.88;;;;;;;;;;4984418;28;20034;-66
2023/09/16 12:03:27;;;;;;;6.05;2.95;;;;;;;;;;4991777;28;20030;-66
2023/09/16 12:05:53;;;;;;;9.45;3.20;;;;;;;;;;4986368;28;20047;-66
2023/09/16 12:08:18;;;;;;;6.13;3.20;;;;;;;;;;4992239;28;20026;-72
2023/09/16 12:10:44;;;;;;;3.03;2.60;;;;;;;;;;4989359;28;20141;-66
2023/09/16 12:13:10;;;;;;;3.15;2.75;;;;;;;;;;4994004;28;20041;-66
2023/09/16 12:15:35;;;;;;;4.90;2.80;;;;;;;;;;4994635;28;20441;-66
2023/09/16 12:18:01;;;;;;;5.65;3.05;;;;;;;;;;4995521;28;20674;-66
2023/09/16 12:20:27;;;;;;;4.30;2.70;;;;;;;;;;4992370;28;20598;-66
2023/09/16 12:22:52;;;;;;;6.07;3.13;;;;;;;;;;4990977;28;20058;-66
2023/09/16 12:25:18;;;;;;;2.67;2.50;;;;;;;;;;4996350;28;20058;-66
2023/09/16 12:27:43;;;;;;;4.68;2.72;;;;;;;;;;4994375;28;20030;-66
2023/09/16 12:30:09;;;;;;;3.58;2.78;;;;;;;;;;4995508;28;20033;-66
2023/09/16 12:32:34;;;;;;;10.77;2.95;;;;;;;;;;4994385;28;20026;-66
2023/09/16 12:35:07;;;;;;;3.25;2.95;;;;;;;;;;4995299;28;20057;-66
2023/09/16 12:37:32;;;;;;;2.95;2.65;;;;;;;;;;4994301;28;20101;-66
2023/09/16 12:39:58;;;;;;;2.92;2.72;;;;;;;;;;4994017;28;20057;-66
2023/09/16 12:42:24;;;;;;;3.67;2.53;;;;;;;;;;4994917;28;20050;-66
2023/09/16 12:44:51;;;;;;;3.65;2.88;;;;;;;;;;4991585;28;20073;-66
2023/09/16 12:47:17;;;;;;;3.25;2.97;;;;;;;;;;4982740;28;20043;-66
2023/09/16 12:49:43;;;;;;;3.13;2.63;;;;;;;;;;4982761;28;20030;-68
2023/09/16 12:52:09;;;;;;;3.63;3.05;;;;;;;;;;4990368;28;20136;-66
2023/09/16 12:54:34;;;;;;;2.90;2.67;;;;;;;;;;4991476;28;20058;-66
2023/09/16 12:57:04;;;;;;;5.43;3.28;;;;;;;;;;4993185;28;20055;-66
2023/09/16 12:59:30;;;;;;;11.05;3.55;;;;;;;;;;4988581;28;20512;-67
2023/09/16 13:01:57;;;;;;;4.72;2.83;;;;;;;;;;5019850;28;20061;-66
2023/09/16 13:04:23;;;;;;;7.80;3.05;;;;;;;;;;4987405;28;20081;-66
2023/09/16 13:06:49;;;;;;;6.47;3.42;;;;;;;;;;4989589;28;20038;-66
2023/09/16 13:09:16;;;;;;;3.60;2.78;;;;;;;;;;4993655;28;20025;-66
2023/09/16 13:11:42;;;;;;;3.63;3.05;;;;;;;;;;4995774;28;20035;-66
2023/09/16 13:14:11;;;;;;;3.50;2.88;;;;;;;;;;4994377;28;20695;-66
2023/09/16 13:16:38;;;;;;;5.10;2.92;;;;;;;;;;4989906;28;20042;-66
2023/09/16 13:19:20;;;;;;;5.57;2.75;;;;;;;;;;4989025;28;20053;-66
2023/09/16 13:21:46;;;;;;;4.00;2.50;;;;;;;;;;4994418;28;20073;-66
2023/09/16 13:24:12;;;;;;;3.10;2.80;;;;;;;;;;4987575;28;20030;-66
2023/09/16 13:26:53;;;;;;;2.95;2.50;;;;;;;;;;4992364;28;20385;-66
2023/09/16 13:29:18;;;;;;;3.70;2.75;;;;;;;;;;4993363;28;20030;-66
2023/09/16 13:31:44;;;;;;;2.80;2.60;;;;;;;;;;4993968;28;20049;-66
2023/09/16 13:34:09;;;;;;;4.95;2.63;;;;;;;;;;4991349;28;20029;-66
2023/09/16 13:36:40;;;;;;;2.85;2.65;;;;;;;;;;4992637;28;20464;-66
2023/09/16 13:39:14;;;;;;;7.25;2.65;;;;;;;;;;4985101;28;20645;-66
2023/09/16 13:41:39;;;;;;;6.00;2.85;;;;;;;;;;4981895;28;20038;-67
2023/09/16 13:44:05;;;;;;;5.57;2.60;;;;;;;;;;4980878;28;20033;-67
2023/09/16 13:46:31;;;;;;;8.02;3.20;;;;;;;;;;4983474;28;20046;-67
2023/09/16 13:48:57;;;;;;;5.18;2.70;;;;;;;;;;4981992;28;20027;-66
2023/09/16 13:51:22;;;;;;;13.60;3.33;;;;;;;;;;4981954;28;20110;-66
2023/09/16 13:53:48;;;;;;;5.75;2.90;;;;;;;;;;4991493;28;20026;-66
2023/09/16 13:56:13;;;;;;;3.00;2.60;;;;;;;;;;4993966;28;20077;-66
2023/09/16 13:58:40;;;;;;;3.58;2.63;;;;;;;;;;4996267;28;20026;-65
2023/09/16 14:01:06;;;;;;;2.83;2.58;;;;;;;;;;4990185;28;20043;-66
2023/09/16 14:03:32;;;;;;;10.65;3.00;;;;;;;;;;4984431;28;20072;-70
2023/09/16 14:05:58;;;;;;;14.90;2.83;;;;;;;;;;4990318;28;20053;-66
2023/09/16 14:08:23;;;;;;;21.00;3.47;;;;;;;;;;4987915;28;20034;-67
2023/09/16 14:10:49;;;;;;;17.08;3.15;;;;;;;;;;4990205;28;20047;-67
2023/09/16 14:13:14;;;;;;;14.07;2.92;;;;;;;;;;4986849;28;20093;-68
2023/09/16 14:15:40;;;;;;;20.25;2.85;;;;;;;;;;4980540;28;20063;-69
2023/09/16 14:18:07;;;;;;;15.05;3.00;;;;;;;;;;4985146;28;20077;-67
2023/09/16 14:20:33;;;;;;;9.60;2.97;;;;;;;;;;4986786;28;20038;-68
2023/09/16 14:23:04;;;;;;;12.02;3.28;;;;;;;;;;4992453;28;20477;-67
2023/09/16 14:25:30;;;;;;;4.35;3.00;;;;;;;;;;4986021;28;20150;-67
2023/09/16 14:27:56;;;;;;;12.27;2.95;;;;;;;;;;4989861;28;20027;-67
2023/09/16 14:30:22;;;;;;;10.80;2.80;;;;;;;;;;4993741;28;20047;-68
2023/09/16 14:32:47;;;;;;;10.82;2.88;;;;;;;;;;5007899;28;20054;-67
2023/09/16 14:35:14;;;;;;;4.68;3.47;;;;;;;;;;4994087;28;20071;-67
2023/09/16 14:37:40;;;;;;;3.75;2.63;;;;;;;;;;4996724;28;20030;-68
2023/09/16 14:40:06;;;;;;;12.05;3.17;;;;;;;;;;4989097;28;20045;-68